Latest Weather Observations for Croker Island Airport

IDD60801

Issued at 11:05 pm CST Friday 24 October 2014 (issued every 30 minutes, with the page automatically refreshed every 10 minutes)

About weather observations | Map of weather stations | Latest weather observations for NT | Other Formats
Station Details ID: 014308 Name: CROKER ISLAND AIRPORT Lat: -11.16 Lon: 132.48 Height: 9.2 m
Data from the previous 72 hours. | See also: Recent months for locations in Northern Territory
Date/Time
CST
Temp
°C
App
Temp
°C
Dew
Point
Rel
Hum
%
Delta-T
°C
Wind Press
QNH
hPa
Press
MSL
hPa
Rain
since 9 am
mm
Dir
 
Spd
km/h
Gust
km/h
Spd
kts
Gust
kts
24/11:00pm 26.1 29.4 22.6 81 2.4 ENE 9 13 5 7 1013.2 1013.1 -
24/10:30pm 26.3 29.5 22.4 79 2.6 NE 9 19 5 10 1013.0 1012.9 -
24/10:00pm 26.4 29.2 22.3 78 2.8 NE 11 17 6 9 1012.7 1012.6 -
24/09:30pm 26.5 28.9 22.3 78 2.8 NE 13 20 7 11 1012.5 1012.4 -
24/09:00pm 26.5 28.8 22.1 77 3.0 NE 13 19 7 10 1012.4 1012.3 -
24/08:30pm 26.4 29.4 22.0 77 2.9 NE 9 17 5 9 1012.2 1012.1 -
24/08:00pm 26.5 29.7 21.7 75 3.2 NE 7 13 4 7 1011.9 1011.8 -
24/07:30pm 26.6 29.0 21.6 74 3.3 NE 11 19 6 10 1011.6 1011.5 -
24/07:00pm 26.8 29.5 21.3 72 3.7 NE 9 17 5 9 1011.2 1011.1 -
24/06:30pm 27.3 28.1 21.3 69 4.0 ENE 19 26 10 14 1010.9 1010.8 -
24/06:00pm 28.0 28.6 21.1 66 4.6 ENE 19 30 10 16 1010.8 1010.7 -
24/05:30pm 28.9 28.7 20.6 61 5.5 ENE 22 33 12 18 1010.7 1010.6 -
24/05:00pm 30.0 30.5 20.8 57 6.1 NE 19 30 10 16 1010.5 1010.4 -
24/04:30pm 30.8 31.4 21.0 56 6.6 NE 19 26 10 14 1010.6 1010.5 -
24/04:00pm 31.1 31.4 20.7 54 6.9 E 20 33 11 18 1010.6 1010.5 -
24/03:30pm 31.6 30.0 19.2 47 8.1 E 26 37 14 20 1010.6 1010.5 -
24/03:00pm 31.9 31.2 21.1 52 7.3 E 26 37 14 20 1010.9 1010.8 -
24/02:30pm 31.4 30.8 20.4 52 7.3 E 24 39 13 21 1011.3 1011.2 -
24/02:00pm 32.1 31.9 21.3 53 7.3 ENE 24 33 13 18 1011.6 1011.5 -
24/01:30pm 31.5 31.0 20.8 53 7.1 ENE 24 39 13 21 1012.0 1011.9 -
24/01:00pm 31.3 31.7 20.9 54 7.0 ENE 20 35 11 19 1012.3 1012.2 -
24/12:30pm 32.3 32.1 20.5 49 7.9 E 22 39 12 21 1013.0 1012.9 -
24/12:00pm 32.3 31.7 20.5 49 7.9 E 24 35 13 19 1013.5 1013.4 -
24/11:30am 31.4 30.8 19.7 49 7.7 ENE 22 32 12 17 1013.8 1013.7 -
24/11:00am 31.4 31.2 19.7 49 7.7 E 20 32 11 17 1014.0 1013.9 -
24/10:30am 31.9 31.9 20.2 50 7.8 E 20 30 11 16 1014.2 1014.1 -
24/10:00am 31.7 31.9 20.6 51 7.4 E 20 32 11 17 1014.1 1014.0 -
24/09:30am 31.3 32.7 21.8 57 6.4 E 17 26 9 14 1014.2 1014.1 -
24/09:00am 30.8 31.7 21.6 58 6.2 E 19 24 10 13 1014.3 1014.2 -
24/08:30am 30.1 31.7 21.5 60 5.8 E 15 30 8 16 1014.3 1014.2 -
24/08:00am 29.0 31.0 22.2 66 4.6 E 15 22 8 12 1014.0 1013.9 -
24/07:30am 27.7 31.8 23.3 77 3.0 ENE 7 11 4 6 1013.7 1013.6 -
24/07:00am 26.0 31.3 24.4 91 1.1 ENE 4 6 2 3 1013.6 1013.5 -
24/06:30am 24.8 29.5 23.4 92 1.0 ENE 4 6 2 3 1013.6 1013.5 -
24/06:00am 24.9 29.2 23.3 91 1.1 E 6 7 3 4 1013.2 1013.1 -
24/05:30am 25.1 29.3 23.2 89 1.3 E 6 7 3 4 1012.9 1012.8 -
24/05:00am 25.6 30.4 23.5 88 1.4 E 4 9 2 5 1012.6 1012.5 -
24/04:30am 25.9 30.5 23.8 88 1.4 ESE 6 9 3 5 1012.5 1012.4 -
24/04:00am 26.1 30.9 24.1 89 1.4 SE 6 9 3 5 1012.1 1012.0 -
24/03:30am 25.6 29.9 24.2 92 1.0 S 9 15 5 8 1012.0 1011.9 -
24/03:00am 25.3 29.7 23.4 89 1.3 ENE 6 11 3 6 1011.4 1011.3 -
24/02:30am 25.4 29.0 23.1 87 1.6 NE 9 17 5 9 1011.7 1011.6 -
24/02:00am 25.3 29.1 22.8 86 1.7 NE 7 11 4 6 1012.3 1012.2 -
24/01:30am 25.6 29.0 22.7 84 2.0 ENE 9 13 5 7 1012.7 1012.6 -
24/01:00am 25.7 29.0 22.6 83 2.1 ENE 9 13 5 7 1013.1 1013.0 -
24/12:30am 25.8 29.5 22.5 82 2.2 ENE 7 13 4 7 1013.6 1013.5 -
24/12:00am 26.0 29.7 22.5 81 2.4 NE 7 9 4 5 1013.8 1013.7 -
 
Date/Time
CST
Temp
°C
App
Temp
°C
Dew
Point
Rel
Hum
%
Delta-T
°C
Wind Press
QNH
hPa
Press
MSL
hPa
Rain
since 9 am
mm
Dir
 
Spd
km/h
Gust
km/h
Spd
kts
Gust
kts
23/11:30pm 26.1 29.4 22.6 81 2.4 ENE 9 13 5 7 1014.0 1013.9 -
23/11:00pm 26.1 29.6 22.8 82 2.2 NE 9 13 5 7 1013.8 1013.7 -
23/10:30pm 25.9 29.1 22.4 81 2.4 ENE 9 13 5 7 1013.6 1013.5 -
23/10:00pm 26.2 29.5 22.5 80 2.5 NE 9 17 5 9 1013.2 1013.1 -
23/09:30pm 26.1 29.0 22.4 80 2.5 NE 11 19 6 10 1012.7 1012.6 -
23/09:00pm 26.2 29.0 22.3 79 2.6 ENE 11 19 6 10 1012.6 1012.5 -
23/08:30pm 26.3 29.8 22.2 78 2.8 NE 7 13 4 7 1012.3 1012.2 -
23/08:00pm 26.2 29.3 21.4 75 3.2 ENE 7 11 4 6 1012.0 1011.9 -
23/07:30pm 26.6 29.3 21.4 73 3.5 ENE 9 13 5 7 1011.7 1011.6 -
23/07:00pm 27.0 29.4 21.5 72 3.7 ENE 11 17 6 9 1011.5 1011.4 -
23/06:30pm 27.7 29.6 21.3 68 4.3 NE 13 20 7 11 1011.2 1011.1 -
23/06:00pm 28.6 30.3 20.9 63 5.1 NE 13 19 7 10 1010.8 1010.7 -
23/05:30pm 29.5 31.2 20.9 60 5.7 NE 13 19 7 10 1010.6 1010.5 -
23/05:00pm 30.4 30.2 19.4 51 7.2 ENE 19 26 10 14 1010.2 1010.1 -
23/04:30pm 30.8 30.7 18.8 48 7.8 NE 17 26 9 14 1010.0 1009.9 -
23/04:00pm 31.5 31.9 19.8 49 7.7 ENE 17 28 9 15 1010.3 1010.2 -
23/03:30pm 32.1 32.2 20.0 48 8.0 NE 19 30 10 16 1010.5 1010.4 -
23/03:00pm 32.4 32.5 20.3 48 8.1 ENE 20 28 11 15 1010.7 1010.6 -
23/02:30pm 31.9 31.5 20.2 50 7.8 NE 22 28 12 15 1011.1 1011.0 -
23/02:00pm 32.5 32.1 19.4 46 8.6 E 20 32 11 17 1011.4 1011.3 -
23/01:30pm 32.5 32.5 21.0 50 7.7 ENE 22 33 12 18 1011.8 1011.7 -
23/01:00pm 32.2 31.4 20.1 48 8.0 E 24 35 13 19 1012.3 1012.2 -
23/12:30pm 33.0 32.3 20.2 47 8.5 E 24 41 13 22 1012.8 1012.7 -
23/12:00pm 32.4 30.8 19.3 46 8.6 E 26 37 14 20 1013.2 1013.1 -
23/11:30am 31.9 31.4 19.9 49 7.9 E 22 32 12 17 1013.5 1013.4 -
23/11:00am 31.6 33.1 21.2 54 7.0 ENE 15 24 8 13 1013.7 1013.6 -
23/10:30am 31.3 32.9 21.5 56 6.6 E 15 24 8 13 1014.0 1013.9 -
23/10:00am 31.1 32.6 21.3 56 6.6 E 15 26 8 14 1014.2 1014.1 -
23/09:30am 30.6 32.8 21.9 59 5.9 E 13 22 7 12 1014.2 1014.1 -
23/09:00am 29.6 31.6 21.5 61 5.4 E 13 20 7 11 1014.4 1014.3 -
23/08:30am 29.3 31.5 21.8 64 5.0 E 13 22 7 12 1014.4 1014.3 -
23/08:00am 28.0 30.4 22.2 70 3.9 E 13 17 7 9 1014.2 1014.1 -
23/07:30am 27.1 32.2 24.9 88 1.5 E 7 15 4 8 1014.1 1014.0 -
23/07:00am 24.6 30.1 24.6 100 0.0 ENE 4 4 2 2 1013.9 1013.8 -
23/06:30am 23.3 27.8 23.0 98 0.2 NE 4 4 2 2 1013.5 1013.4 -
23/06:00am 22.9 27.4 22.9 100 0.0 ENE 4 6 2 3 1013.2 1013.1 -
23/05:30am 23.4 28.1 23.4 100 0.0 ENE 4 4 2 2 1012.8 1012.7 -
23/05:00am 23.7 28.6 23.7 100 0.0 E 4 4 2 2 1012.5 1012.4 -
23/04:30am 23.2 28.0 22.9 98 0.2 ENE 2 4 1 2 1012.2 1012.1 -
23/04:00am 23.3 27.8 22.3 94 0.7 NE 2 4 1 2 1012.0 1011.9 -
23/03:30am 23.8 28.4 22.4 92 0.9 ENE 2 4 1 2 1012.2 1012.1 -
23/03:00am 23.8 27.8 22.1 90 1.1 E 4 4 2 2 1012.3 1012.2 -
23/02:30am 24.3 29.0 22.7 91 1.1 ENE 2 4 1 2 1012.8 1012.7 -
23/02:00am 24.8 29.4 23.8 94 0.7 ENE 6 7 3 4 1013.0 1012.9 -
23/01:30am 24.8 30.0 24.8 100 0.0 E 6 7 3 4 1013.2 1013.1 -
23/01:00am 24.9 28.9 23.1 90 1.2 ENE 7 9 4 5 1013.4 1013.3 -
23/12:30am 24.8 28.9 23.0 90 1.2 E 6 6 3 3 1013.6 1013.5 -
23/12:00am 25.2 29.5 23.6 91 1.1 NE 7 9 4 5 1013.7 1013.6 -
 
Date/Time
CST
Temp
°C
App
Temp
°C
Dew
Point
Rel
Hum
%
Delta-T
°C
Wind Press
QNH
hPa
Press
MSL
hPa
Rain
since 9 am
mm
Dir
 
Spd
km/h
Gust
km/h
Spd
kts
Gust
kts
22/11:30pm 24.8 29.0 23.4 92 1.0 ENE 7 9 4 5 1013.9 1013.8 -
22/11:00pm 24.6 28.9 22.7 89 1.3 ENE 4 7 2 4 1013.9 1013.8 -
22/10:30pm 24.5 28.7 21.8 85 1.8 ENE 2 4 1 2 1013.8 1013.7 -
22/10:00pm 24.9 29.4 21.6 82 2.2 CALM 0 2 0 1 1013.5 1013.4 -
22/09:30pm 25.9 29.9 22.8 83 2.1 NE 6 7 3 4 1013.1 1013.0 -
22/09:00pm 26.1 29.8 22.6 81 2.4 NE 7 13 4 7 1012.7 1012.6 -
22/08:30pm 26.5 30.3 22.8 80 2.5 NE 7 13 4 7 1012.6 1012.5 -
22/08:00pm 26.6 30.0 22.7 79 2.6 NE 9 15 5 8 1012.3 1012.2 -
22/07:30pm 26.8 30.3 22.2 76 3.1 NE 7 13 4 7 1012.0 1011.9 -
22/07:00pm 27.2 29.8 21.9 73 3.6 NE 11 19 6 10 1011.8 1011.7 -
22/06:30pm 27.7 29.1 21.0 67 4.4 ENE 15 20 8 11 1011.6 1011.5 -
22/06:00pm 28.4 29.1 19.6 59 5.7 NE 15 20 8 11 1011.3 1011.2 -
22/05:30pm 29.3 29.9 20.2 58 6.0 NE 17 24 9 13 1011.0 1010.9 -
22/05:00pm 30.0 31.0 21.1 59 5.9 ENE 17 22 9 12 1010.9 1010.8 -
22/04:30pm 30.6 31.5 20.8 56 6.5 ENE 17 24 9 13 1010.7 1010.6 -
22/04:00pm 31.8 32.7 21.6 54 6.9 ENE 19 26 10 14 1010.8 1010.7 -
22/03:30pm 31.7 32.0 20.3 50 7.6 NE 19 28 10 15 1010.8 1010.7 -
22/03:00pm 31.6 32.1 21.2 54 7.0 NE 20 32 11 17 1011.0 1010.9 -
22/02:30pm 32.2 32.6 21.7 54 7.1 E 22 30 12 16 1011.3 1011.2 -
22/02:00pm 32.3 33.2 21.5 53 7.3 E 19 30 10 16 1011.7 1011.6 -
22/01:30pm 32.0 32.2 20.6 51 7.6 ENE 20 30 11 16 1012.1 1012.0 -
22/01:00pm 32.7 33.4 21.5 51 7.6 ENE 20 30 11 16 1012.8 1012.7 -
22/12:30pm 32.1 32.2 20.4 50 7.8 E 20 32 11 17 1013.3 1013.2 -
22/12:00pm 32.2 32.8 21.1 52 7.5 E 19 33 10 18 1013.8 1013.7 -
22/11:30am 32.5 33.1 21.0 50 7.7 ENE 19 30 10 16 1014.2 1014.1 -
22/11:00am 32.5 33.8 21.7 53 7.3 E 17 28 9 15 1014.6 1014.5 -
22/10:30am 31.7 32.9 21.5 54 6.9 E 17 26 9 14 1014.9 1014.8 -
22/10:00am 31.1 32.9 21.9 58 6.2 E 15 22 8 12 1015.0 1014.9 -
22/09:30am 30.5 32.8 22.7 63 5.3 E 15 24 8 13 1015.1 1015.0 -
22/09:00am 30.0 31.6 22.2 63 5.3 E 17 24 9 13 1015.1 1015.0 -
22/08:30am 29.0 31.9 23.2 71 4.0 ENE 13 19 7 10 1014.8 1014.7 -
22/08:00am 27.7 31.8 23.9 80 2.6 ENE 9 15 5 8 1014.7 1014.6 -
22/07:30am 26.5 32.2 25.6 95 0.6 E 6 9 3 5 1014.3 1014.2 -
22/07:00am 24.9 30.5 24.9 100 0.0 ENE 4 6 2 3 1014.1 1014.0 -
22/06:30am 24.2 29.8 24.2 100 0.0 NE 2 4 1 2 1013.6 1013.5 -
22/06:00am 24.7 29.8 24.7 100 0.0 ENE 6 9 3 5 1013.4 1013.3 -
22/05:30am 24.9 30.2 24.9 100 0.0 NE 6 11 3 6 1013.2 1013.1 -
22/05:00am 24.0 29.5 24.0 100 0.0 ENE 2 4 1 2 1013.3 1013.2 -
22/04:30am 24.4 29.7 24.4 100 0.0 ESE 4 6 2 3 1013.2 1013.1 -
22/04:00am 24.9 30.2 24.9 100 0.0 E 6 9 3 5 1013.2 1013.1 -
22/03:30am 24.5 29.5 24.5 100 0.0 SE 6 7 3 4 1013.2 1013.1 -
22/03:00am 23.9 29.3 23.9 100 0.0 ESE 2 6 1 3 1013.0 1012.9 -
22/02:30am 24.2 29.0 24.2 100 0.0 E 6 7 3 4 1013.2 1013.1 -
22/02:00am 24.4 28.8 24.4 100 0.0 ENE 9 13 5 7 1013.1 1013.0 -
22/01:30am 23.7 27.6 23.0 96 0.5 E 7 7 4 4 1013.3 1013.2 -
22/01:00am 24.7 29.2 24.0 96 0.5 ENE 7 7 4 4 1013.8 1013.7 -
22/12:30am 25.3 30.6 24.4 95 0.6 NE 4 7 2 4 1013.9 1013.8 -
22/12:00am 25.6 30.5 24.4 93 0.8 NNE 6 9 3 5 1014.1 1014.0 -
 
Date/Time
CST
Temp
°C
App
Temp
°C
Dew
Point
Rel
Hum
%
Delta-T
°C
Wind Press
QNH
hPa
Press
MSL
hPa
Rain
since 9 am
mm
Dir
 
Spd
km/h
Gust
km/h
Spd
kts
Gust
kts
21/11:30pm 25.8 30.4 24.2 91 1.1 NE 7 11 4 6 1014.3 1014.2 -

Other Formats:

Comma delimited format used in spreadsheet applications
http://www.bom.gov.au/fwo/IDD60801/IDD60801.94108.axf

JavaScript Object Notation format (JSON) in row-major order
http://www.bom.gov.au/fwo/IDD60801/IDD60801.94108.json